Time;durP1;ratioP1;P1;durP2;ratioP2;P2;SDS_P1;SDS_P2;PMS_P1;PMS_P2;Temp;Humidity;BMP_temperature;BMP_pressure;BME280_temperature;BME280_humidity;BME280_pressure;Samples;Min_cycle;Max_cycle;Signal;HPM_P1;HPM_P2
2023/11/16 00:00:13;;;;;;;18.50;2.80;;;;;;;9.14;100.00;101628.97;4993397;28;20058;-81
2023/11/16 00:02:41;;;;;;;11.35;2.55;;;;;;;9.15;100.00;101633.31;4992964;28;20052;-79
2023/11/16 00:05:07;;;;;;;19.02;2.58;;;;;;;9.16;100.00;101642.97;4992801;28;20402;-79
2023/11/16 00:07:33;;;;;;;14.50;2.40;;;;;;;9.18;100.00;101642.84;4992955;28;20051;-78
2023/11/16 00:09:59;;;;;;;15.68;2.72;;;;;;;9.20;100.00;101642.78;4993100;28;20037;-77
2023/11/16 00:12:24;;;;;;;14.48;2.10;;;;;;;9.21;100.00;101647.97;4992127;28;20033;-81
2023/11/16 00:14:50;;;;;;;11.63;2.17;;;;;;;9.21;100.00;101637.34;4991349;28;20475;-81
2023/11/16 00:17:15;;;;;;;13.15;1.75;;;;;;;9.24;100.00;101649.53;4991397;28;20031;-78
2023/11/16 00:19:42;;;;;;;11.88;2.30;;;;;;;9.25;100.00;101636.16;4992424;28;20069;-78
2023/11/16 00:22:09;;;;;;;8.90;2.10;;;;;;;9.23;100.00;101642.53;4992701;28;20030;-79
2023/11/16 00:24:34;;;;;;;8.48;2.15;;;;;;;9.21;100.00;101649.75;4992843;28;20038;-81
2023/11/16 00:27:00;;;;;;;8.23;1.70;;;;;;;9.11;100.00;101649.59;4992565;28;20030;-80
2023/11/16 00:29:26;;;;;;;13.88;2.05;;;;;;;9.01;100.00;101649.38;4992468;28;20038;-80
2023/11/16 00:31:51;;;;;;;10.43;1.75;;;;;;;8.93;100.00;101651.75;4992417;28;20117;-77
2023/11/16 00:34:17;;;;;;;16.55;1.98;;;;;;;8.86;100.00;101656.63;4992735;28;20030;-79
2023/11/16 00:36:43;;;;;;;14.88;2.20;;;;;;;8.80;100.00;101668.50;4992452;28;20368;-78
2023/11/16 00:39:09;;;;;;;11.10;1.98;;;;;;;8.73;100.00;101669.91;4992468;28;20129;-78
2023/11/16 00:41:37;;;;;;;20.10;3.03;;;;;;;8.71;100.00;101663.00;4992964;28;20038;-78
2023/11/16 00:44:05;;;;;;;16.05;1.83;;;;;;;8.67;100.00;101669.47;4992389;28;20062;-77
2023/11/16 00:46:32;;;;;;;6.72;2.10;;;;;;;8.62;100.00;101665.34;4992355;28;20130;-79
2023/11/16 00:48:58;;;;;;;8.18;1.40;;;;;;;8.57;100.00;101672.78;4992840;28;20038;-77
2023/11/16 00:51:23;;;;;;;11.50;2.03;;;;;;;8.52;100.00;101680.19;4992550;28;20031;-77
2023/11/16 00:53:48;;;;;;;5.35;1.30;;;;;;;8.47;100.00;101667.25;4992315;28;20173;-77
2023/11/16 00:56:14;;;;;;;11.27;1.40;;;;;;;8.41;100.00;101683.53;4992281;28;20062;-81
2023/11/16 00:58:40;;;;;;;6.75;1.63;;;;;;;8.37;100.00;101679.38;4992362;28;20136;-79
2023/11/16 01:01:06;;;;;;;5.50;1.17;;;;;;;8.33;100.00;101677.94;4992210;28;20034;-76
2023/11/16 01:03:32;;;;;;;9.20;1.17;;;;;;;8.29;100.00;101679.91;4992285;28;20423;-77
2023/11/16 01:05:58;;;;;;;7.03;1.30;;;;;;;8.26;100.00;101679.28;4992048;28;20555;-78
2023/11/16 01:08:23;;;;;;;9.60;1.42;;;;;;;8.23;100.00;101682.16;4990683;28;20058;-82
2023/11/16 01:10:49;;;;;;;3.95;1.00;;;;;;;8.21;100.00;101684.91;4990804;28;20096;-78
2023/11/16 01:13:24;;;;;;;10.80;1.50;;;;;;;8.13;100.00;101676.59;4992080;28;20490;-79
2023/11/16 01:15:51;;;;;;;6.95;1.35;;;;;;;8.02;100.00;101687.09;4992342;28;20031;-79
2023/11/16 01:18:16;;;;;;;7.40;1.13;;;;;;;7.93;100.00;101683.25;4992368;28;20030;-83
2023/11/16 01:20:42;;;;;;;7.18;1.45;;;;;;;7.86;100.00;101688.06;4991308;28;20038;-83
2023/11/16 01:23:12;;;;;;;4.85;0.80;;;;;;;7.78;100.00;101690.38;4994017;28;20084;-85
2023/11/16 01:25:44;;;;;;;8.05;1.15;;;;;;;7.72;100.00;101685.50;4996318;28;20046;-86
2023/11/16 01:28:10;;;;;;;9.40;1.55;;;;;;;7.67;100.00;101688.41;4994760;28;20035;-85
2023/11/16 01:30:36;;;;;;;6.43;1.10;;;;;;;7.64;100.00;101683.31;4996383;28;20034;-85
2023/11/16 01:33:07;;;;;;;7.68;0.60;;;;;;;7.61;100.00;101677.38;4995308;28;20045;-86
2023/11/16 01:35:42;;;;;;;5.15;0.90;;;;;;;7.58;100.00;101689.88;4996311;28;20046;-84
2023/11/16 01:38:08;;;;;;;3.53;1.10;;;;;;;7.57;100.00;101690.00;4995765;28;20035;-84
2023/11/16 01:40:33;;;;;;;11.68;1.27;;;;;;;7.54;100.00;101685.72;4996146;28;20038;-83
2023/11/16 01:43:00;;;;;;;4.65;1.05;;;;;;;7.52;100.00;101692.91;4996202;28;20456;-84
2023/11/16 01:45:33;;;;;;;7.72;1.10;;;;;;;7.52;100.00;101694.72;4995521;28;20116;-85
2023/11/16 01:48:01;;;;;;;5.78;0.80;;;;;;;7.49;100.00;101697.56;4994284;28;20089;-84
2023/11/16 01:50:31;;;;;;;9.68;1.33;;;;;;;7.48;100.00;101693.19;4995193;28;20027;-86
2023/11/16 01:53:04;;;;;;;7.68;1.20;;;;;;;7.49;100.00;101695.75;4995918;28;20093;-84
2023/11/16 01:55:51;;;;;;;8.13;0.88;;;;;;;7.50;100.00;101701.91;4995302;28;20041;-85
2023/11/16 01:58:16;;;;;;;6.78;1.80;;;;;;;7.46;100.00;101690.66;4995439;28;20030;-89
2023/11/16 02:00:43;;;;;;;10.05;1.27;;;;;;;7.45;100.00;101694.28;4994569;28;20121;-82
2023/11/16 02:03:09;;;;;;;9.02;1.20;;;;;;;7.44;100.00;101697.84;4995291;28;20065;-84
2023/11/16 02:05:37;;;;;;;4.60;0.88;;;;;;;7.41;100.00;101696.25;4995510;28;20022;-83
2023/11/16 02:08:06;;;;;;;9.85;1.17;;;;;;;7.40;100.00;101701.63;4995134;28;20050;-83
2023/11/16 02:10:32;;;;;;;15.02;1.83;;;;;;;7.38;100.00;101709.69;4995292;28;20035;-84
2023/11/16 02:13:03;;;;;;;8.48;1.10;;;;;;;7.38;100.00;101709.69;4995077;28;20030;-84
2023/11/16 02:15:31;;;;;;;7.57;0.98;;;;;;;7.36;100.00;101700.13;4995980;28;20030;-82
2023/11/16 02:17:58;;;;;;;12.18;1.40;;;;;;;7.38;100.00;101711.50;4995489;28;20034;-83
2023/11/16 02:20:25;;;;;;;8.65;1.00;;;;;;;7.36;100.00;101701.00;4994595;28;20421;-84
2023/11/16 02:22:52;;;;;;;14.32;2.10;;;;;;;7.37;100.00;101704.47;4994832;28;20042;-84
2023/11/16 02:25:18;;;;;;;5.25;1.00;;;;;;;7.36;100.00;101695.69;4995165;28;20033;-84
2023/11/16 02:27:44;;;;;;;11.98;1.52;;;;;;;7.36;100.00;101701.00;4994195;28;20038;-82
2023/11/16 02:30:10;;;;;;;8.73;1.08;;;;;;;7.36;100.00;101694.81;4993412;28;20042;-86
2023/11/16 02:32:36;;;;;;;13.50;1.15;;;;;;;7.34;100.00;101696.72;4993528;28;20026;-84
2023/11/16 02:35:02;;;;;;;10.75;1.42;;;;;;;7.32;100.00;101694.19;4994503;28;20085;-84
2023/11/16 02:37:28;;;;;;;21.10;1.65;;;;;;;7.30;100.00;101695.22;4994828;28;20073;-83
2023/11/16 02:39:53;;;;;;;11.20;1.10;;;;;;;7.29;100.00;101696.19;4994746;28;20470;-88
2023/11/16 02:42:19;;;;;;;11.52;1.20;;;;;;;7.26;100.00;101699.88;4995051;28;20382;-84
2023/11/16 02:44:47;;;;;;;10.65;1.73;;;;;;;7.22;100.00;101695.72;4994331;28;20426;-82
2023/11/16 02:47:13;;;;;;;3.38;0.70;;;;;;;7.18;100.00;101692.41;4977472;28;20125;-84
2023/11/16 02:49:38;;;;;;;6.93;0.98;;;;;;;7.15;100.00;101692.63;4994449;28;20041;-84
2023/11/16 02:52:04;;;;;;;7.95;0.73;;;;;;;7.12;100.00;101689.28;4993543;28;20083;-84
2023/11/16 02:54:30;;;;;;;4.90;0.80;;;;;;;7.07;100.00;101682.47;4994359;28;20504;-83
2023/11/16 02:56:55;;;;;;;10.18;1.25;;;;;;;7.07;100.00;101692.22;4994255;28;20509;-83
2023/11/16 02:59:21;;;;;;;6.85;0.98;;;;;;;7.02;100.00;101684.56;4994711;28;20117;-87
2023/11/16 03:01:46;;;;;;;8.93;0.93;;;;;;;7.03;100.00;101688.06;4992629;28;20089;-83
2023/11/16 03:04:11;;;;;;;6.97;1.30;;;;;;;7.03;100.00;101696.00;4994002;28;20121;-83
2023/11/16 03:06:40;;;;;;;3.67;0.73;;;;;;;7.04;100.00;101695.06;4994038;28;20035;-83
2023/11/16 03:09:05;;;;;;;8.95;1.00;;;;;;;7.03;100.00;101691.56;4994595;28;20082;-84
2023/11/16 03:11:32;;;;;;;6.90;1.08;;;;;;;7.03;100.00;101688.94;4994033;28;20054;-85
2023/11/16 03:13:58;;;;;;;5.03;0.82;;;;;;;7.03;100.00;101690.69;4992668;28;20030;-84
2023/11/16 03:16:24;;;;;;;9.57;1.33;;;;;;;7.04;100.00;101687.13;4993980;28;20034;-83
2023/11/16 03:18:50;;;;;;;10.77;1.00;;;;;;;7.04;100.00;101682.66;4993534;28;20077;-83
2023/11/16 03:21:16;;;;;;;5.80;1.02;;;;;;;7.04;100.00;101677.38;4992321;28;20038;-83
2023/11/16 03:23:41;;;;;;;5.47;1.27;;;;;;;7.01;100.00;101674.09;4993830;28;20042;-83
2023/11/16 03:26:07;;;;;;;10.68;1.15;;;;;;;7.00;100.00;101670.59;4993396;28;20529;-83
2023/11/16 03:28:33;;;;;;;9.27;1.02;;;;;;;6.96;100.00;101668.25;4976057;28;20045;-83
2023/11/16 03:30:58;;;;;;;6.68;0.82;;;;;;;6.92;100.00;101664.09;4993474;28;20030;-83
2023/11/16 03:33:23;;;;;;;7.38;1.10;;;;;;;6.87;100.00;101657.28;4992290;28;20045;-83
2023/11/16 03:35:49;;;;;;;12.05;1.20;;;;;;;6.83;100.00;101652.28;4994217;28;20467;-83
2023/11/16 03:38:18;;;;;;;4.88;0.93;;;;;;;6.82;100.00;101643.50;4992639;28;20041;-83
2023/11/16 03:40:44;;;;;;;7.07;2.30;;;;;;;6.81;100.00;101649.72;4993304;28;20471;-84
2023/11/16 03:43:12;;;;;;;4.55;0.77;;;;;;;6.82;100.00;101648.78;4993913;28;20132;-84
2023/11/16 03:45:39;;;;;;;7.45;0.88;;;;;;;6.82;100.00;101650.56;4991210;28;20049;-84
2023/11/16 03:48:04;;;;;;;4.43;0.82;;;;;;;6.83;100.00;101649.63;4993702;28;20043;-84
2023/11/16 03:50:30;;;;;;;7.22;1.00;;;;;;;6.82;100.00;101642.63;4991951;28;20470;-84
2023/11/16 03:52:55;;;;;;;4.55;0.80;;;;;;;6.84;100.00;101652.16;4993012;28;20039;-85
2023/11/16 03:55:20;;;;;;;12.93;1.17;;;;;;;6.88;100.00;101655.47;4993301;28;20528;-85
2023/11/16 03:57:46;;;;;;;7.68;1.50;;;;;;;6.86;100.00;101650.28;4993237;28;20534;-84
2023/11/16 04:00:13;;;;;;;6.53;0.80;;;;;;;6.88;100.00;101651.03;4991780;28;20077;-83
2023/11/16 04:02:38;;;;;;;5.22;1.05;;;;;;;6.87;100.00;101646.69;4993360;28;20045;-83
2023/11/16 04:05:05;;;;;;;6.72;1.10;;;;;;;6.91;100.00;101652.63;4991446;28;20034;-83
2023/11/16 04:07:34;;;;;;;6.78;0.77;;;;;;;6.90;100.00;101640.38;4992710;28;20060;-84
2023/11/16 04:10:00;;;;;;;10.90;1.15;;;;;;;6.91;100.00;101649.13;4993111;28;20038;-82
2023/11/16 04:12:29;;;;;;;4.40;1.10;;;;;;;6.88;100.00;101644.88;4993217;28;20026;-83
2023/11/16 04:14:54;;;;;;;9.60;1.23;;;;;;;6.83;100.00;101641.69;4992795;28;20045;-83
2023/11/16 04:17:21;;;;;;;6.25;1.15;;;;;;;6.84;100.00;101646.03;4991885;28;20035;-82
2023/11/16 04:19:46;;;;;;;7.65;1.23;;;;;;;6.79;100.00;101650.75;4991979;28;20150;-82
2023/11/16 04:22:14;;;;;;;4.88;1.30;;;;;;;6.77;100.00;101640.25;4993383;28;20057;-82
2023/11/16 04:24:42;;;;;;;6.75;1.08;;;;;;;6.77;100.00;101637.63;4991683;28;20042;-82
2023/11/16 04:27:08;;;;;;;9.32;1.20;;;;;;;6.77;100.00;101634.13;4992893;28;20118;-82
2023/11/16 04:29:34;;;;;;;6.88;1.23;;;;;;;6.79;100.00;101627.81;4992494;28;20034;-83
2023/11/16 04:31:59;;;;;;;8.68;1.35;;;;;;;6.75;100.00;101636.00;4993402;28;20042;-84
2023/11/16 04:34:27;;;;;;;8.15;1.60;;;;;;;6.79;100.00;101642.81;4992905;28;20027;-84
2023/11/16 04:36:53;;;;;;;6.20;1.42;;;;;;;6.76;100.00;101646.50;4991633;28;20034;-83
2023/11/16 04:39:21;;;;;;;10.35;1.80;;;;;;;6.76;100.00;101643.00;4992521;28;20045;-83
2023/11/16 04:41:47;;;;;;;7.20;1.25;;;;;;;6.77;100.00;101642.06;4993636;28;20046;-83
2023/11/16 04:44:12;;;;;;;4.00;0.98;;;;;;;6.77;100.00;101631.50;4993036;28;20038;-83
2023/11/16 04:46:46;;;;;;;7.03;1.52;;;;;;;6.78;100.00;101626.09;4992835;28;20035;-83
2023/11/16 04:49:13;;;;;;;11.90;1.23;;;;;;;6.79;100.00;101624.28;4992812;28;20031;-84
2023/11/16 04:51:40;;;;;;;7.72;1.50;;;;;;;6.79;100.00;101619.00;4993066;28;20109;-84
2023/11/16 04:54:06;;;;;;;10.35;1.67;;;;;;;6.79;100.00;101611.06;4975708;28;20034;-83
2023/11/16 04:56:32;;;;;;;9.32;1.30;;;;;;;6.80;100.00;101612.78;4993093;28;20474;-84
2023/11/16 04:58:57;;;;;;;9.02;1.73;;;;;;;6.80;100.00;101608.31;4996815;28;20030;-83
2023/11/16 05:01:23;;;;;;;4.53;1.48;;;;;;;6.81;100.00;101619.78;4997143;28;20034;-84
2023/11/16 05:03:48;;;;;;;6.78;1.33;;;;;;;6.83;100.00;101631.09;4996515;28;20140;-84
2023/11/16 05:06:14;;;;;;;5.85;1.80;;;;;;;6.80;100.00;101626.00;4996488;28;20022;-84
2023/11/16 05:08:40;;;;;;;7.05;1.67;;;;;;;6.83;100.00;101628.47;4996521;28;20055;-83
2023/11/16 05:11:06;;;;;;;6.63;1.67;;;;;;;6.83;100.00;101628.47;4979061;28;20026;-84
2023/11/16 05:13:32;;;;;;;7.00;1.38;;;;;;;6.82;100.00;101635.56;4996258;28;20382;-83
2023/11/16 05:15:58;;;;;;;5.97;1.70;;;;;;;6.81;100.00;101630.34;4996587;28;20066;-83
2023/11/16 05:18:23;;;;;;;10.10;2.50;;;;;;;6.82;100.00;101629.41;4994896;28;20065;-84
2023/11/16 05:20:49;;;;;;;5.65;1.30;;;;;;;6.79;100.00;101622.53;4995851;28;20542;-83
2023/11/16 05:23:17;;;;;;;6.50;1.55;;;;;;;6.78;100.00;101614.69;4996055;28;20363;-83
2023/11/16 05:25:44;;;;;;;7.88;1.67;;;;;;;6.75;100.00;101615.72;4995869;28;20101;-83
2023/11/16 05:28:09;;;;;;;8.00;1.95;;;;;;;6.71;100.00;101612.41;4995821;28;20044;-84
2023/11/16 05:30:35;;;;;;;16.55;2.05;;;;;;;6.69;100.00;101610.81;4995823;28;20034;-84
2023/11/16 05:33:03;;;;;;;4.45;1.70;;;;;;;6.69;100.00;101622.22;4994873;28;20088;-83
2023/11/16 05:35:32;;;;;;;9.57;1.90;;;;;;;6.70;100.00;101618.66;4995845;28;20035;-83
2023/11/16 05:37:57;;;;;;;5.72;1.70;;;;;;;6.71;100.00;101624.78;4995757;28;20034;-84
2023/11/16 05:40:26;;;;;;;7.35;1.42;;;;;;;6.72;100.00;101623.84;4995719;28;20054;-84
2023/11/16 05:42:52;;;;;;;7.20;1.92;;;;;;;6.74;100.00;101619.28;4996046;28;20026;-84
2023/11/16 05:45:18;;;;;;;6.47;1.67;;;;;;;6.73;100.00;101611.47;4995838;28;20096;-84
2023/11/16 05:47:45;;;;;;;13.75;1.88;;;;;;;6.72;100.00;101610.63;4995992;28;20034;-83
2023/11/16 05:50:10;;;;;;;6.53;1.50;;;;;;;6.71;100.00;101607.09;4996459;28;20036;-83
2023/11/16 05:52:36;;;;;;;8.95;1.67;;;;;;;6.73;100.00;101606.16;4995484;28;20034;-85
2023/11/16 05:55:03;;;;;;;5.97;1.52;;;;;;;6.72;100.00;101602.69;4995965;28;20092;-83
2023/11/16 05:57:28;;;;;;;17.58;7.32;;;;;;;6.72;100.00;101589.47;4995125;28;20037;-84
2023/11/16 05:59:54;;;;;;;21.70;5.53;;;;;;;6.70;100.00;101586.03;4994707;28;20042;-82
2023/11/16 06:02:19;;;;;;;12.13;2.42;;;;;;;6.70;100.00;101580.75;4996131;28;20034;-83
2023/11/16 06:04:44;;;;;;;8.88;2.17;;;;;;;6.70;100.00;101576.34;4994259;28;20235;-83
2023/11/16 06:07:10;;;;;;;6.07;1.48;;;;;;;6.72;100.00;101584.16;4994396;28;20030;-83
2023/11/16 06:09:36;;;;;;;9.68;1.75;;;;;;;6.76;100.00;101585.66;4994576;28;20034;-83
2023/11/16 06:12:02;;;;;;;8.55;1.85;;;;;;;6.77;100.00;101578.59;4995898;28;20068;-84
2023/11/16 06:14:32;;;;;;;7.22;1.80;;;;;;;6.76;100.00;101571.59;4995703;28;20120;-85
2023/11/16 06:17:01;;;;;;;9.95;1.80;;;;;;;6.80;100.00;101576.59;4995638;28;20027;-83
2023/11/16 06:19:30;;;;;;;4.40;1.90;;;;;;;6.78;100.00;101575.00;4994949;28;20054;-84
2023/11/16 06:21:55;;;;;;;9.30;3.08;;;;;;;6.77;100.00;101566.19;4994435;28;20030;-85
2023/11/16 06:24:21;;;;;;;10.00;2.50;;;;;;;6.78;100.00;101567.06;4995123;28;20164;-84
2023/11/16 06:26:46;;;;;;;5.13;2.08;;;;;;;6.78;100.00;101559.13;4993770;28;20050;-84
2023/11/16 06:29:14;;;;;;;10.73;2.83;;;;;;;6.77;100.00;101560.91;4993708;28;20117;-83
2023/11/16 06:31:41;;;;;;;9.18;2.83;;;;;;;6.81;100.00;101556.28;4994868;28;20065;-83
2023/11/16 06:34:07;;;;;;;12.40;2.30;;;;;;;6.80;100.00;101559.88;4994270;28;20038;-88
2023/11/16 06:36:32;;;;;;;8.00;2.40;;;;;;;6.79;100.00;101553.75;4994889;28;20065;-82
2023/11/16 06:38:57;;;;;;;6.25;2.03;;;;;;;6.78;100.00;101549.41;4994672;28;20143;-84
2023/11/16 06:41:23;;;;;;;9.20;2.05;;;;;;;6.77;100.00;101547.69;4994250;28;20046;-83
2023/11/16 06:43:48;;;;;;;7.85;2.30;;;;;;;6.76;100.00;101550.44;4995211;28;20035;-85
2023/11/16 06:46:15;;;;;;;11.45;2.75;;;;;;;6.77;100.00;101557.44;4995091;28;20027;-84
2023/11/16 06:48:41;;;;;;;10.13;1.95;;;;;;;6.76;100.00;101553.06;4993986;28;20494;-81
2023/11/16 06:51:08;;;;;;;4.80;1.65;;;;;;;6.75;100.00;101552.22;4992539;28;20022;-88
2023/11/16 06:53:35;;;;;;;9.10;1.80;;;;;;;6.76;100.00;101547.78;4994428;28;20048;-83
2023/11/16 06:56:01;;;;;;;8.38;1.70;;;;;;;6.75;100.00;101546.06;4993909;28;20045;-83
2023/11/16 06:58:27;;;;;;;14.32;2.28;;;;;;;6.75;100.00;101544.31;4994195;28;20038;-82
2023/11/16 07:00:54;;;;;;;10.30;2.00;;;;;;;6.76;100.00;101545.13;4993974;28;20042;-84
2023/11/16 07:03:21;;;;;;;3.90;1.55;;;;;;;6.74;100.00;101547.03;4994318;28;20498;-84
2023/11/16 07:05:47;;;;;;;8.90;2.03;;;;;;;6.77;100.00;101545.03;4993606;28;20497;-82
2023/11/16 07:08:13;;;;;;;7.78;1.90;;;;;;;6.76;100.00;101543.34;4992065;28;20140;-81
2023/11/16 07:10:38;;;;;;;8.18;1.88;;;;;;;6.77;100.00;101542.41;4993582;28;20070;-83
2023/11/16 07:13:05;;;;;;;12.68;2.33;;;;;;;6.74;100.00;101528.53;4993649;28;20117;-88
2023/11/16 07:15:32;;;;;;;8.45;1.80;;;;;;;6.78;100.00;101536.16;4993542;28;20522;-89
2023/11/16 07:17:58;;;;;;;9.35;2.13;;;;;;;6.79;100.00;101531.72;4992638;28;20386;-85
2023/11/16 07:20:25;;;;;;;12.25;2.20;;;;;;;6.77;100.00;101531.81;4993325;28;20042;-86
2023/11/16 07:22:50;;;;;;;12.43;2.72;;;;;;;6.77;100.00;101534.47;4993349;28;20557;-86
2023/11/16 07:25:20;;;;;;;13.02;2.50;;;;;;;6.78;100.00;101536.16;4991955;28;20038;-85
2023/11/16 07:27:45;;;;;;;9.05;2.35;;;;;;;6.81;100.00;101527.19;4993252;28;20042;-84
2023/11/16 07:30:12;;;;;;;10.00;2.40;;;;;;;6.81;100.00;101528.03;4993175;28;20156;-84
2023/11/16 07:32:37;;;;;;;9.48;2.22;;;;;;;6.85;100.00;101524.25;4975602;28;20124;-82
2023/11/16 07:35:14;;;;;;;12.60;2.42;;;;;;;6.88;100.00;101525.84;4993090;28;20510;-83
2023/11/16 07:37:41;;;;;;;7.03;2.15;;;;;;;6.92;100.00;101522.06;4994196;28;20089;-84
2023/11/16 07:40:09;;;;;;;10.93;2.33;;;;;;;6.96;100.00;101533.31;4992910;28;20058;-85
2023/11/16 07:42:36;;;;;;;14.55;2.53;;;;;;;6.98;100.00;101531.41;4993657;28;20088;-84
2023/11/16 07:45:01;;;;;;;11.18;2.42;;;;;;;7.00;100.00;101524.19;4993628;28;20031;-85
2023/11/16 07:47:26;;;;;;;8.25;2.70;;;;;;;7.03;100.00;101526.66;4993445;28;20387;-84
2023/11/16 07:49:53;;;;;;;11.63;2.70;;;;;;;7.05;100.00;101530.06;4992858;28;20034;-84
2023/11/16 07:52:20;;;;;;;8.05;2.33;;;;;;;7.09;100.00;101536.00;4992994;28;20040;-85
2023/11/16 07:54:46;;;;;;;10.32;2.58;;;;;;;7.11;100.00;101520.88;4993471;28;20377;-84
2023/11/16 07:57:20;;;;;;;14.02;3.40;;;;;;;7.13;100.00;101514.50;4993433;28;20034;-84
2023/11/16 07:59:46;;;;;;;8.73;2.45;;;;;;;7.14;100.00;101510.94;4993749;28;20034;-84
2023/11/16 08:02:16;;;;;;;12.07;2.60;;;;;;;7.14;100.00;101507.44;4993231;28;20034;-85
2023/11/16 08:04:43;;;;;;;12.02;2.72;;;;;;;7.17;100.00;101494.00;4993605;28;20069;-84
2023/11/16 08:07:10;;;;;;;8.07;2.65;;;;;;;7.21;100.00;101492.84;4991635;28;20420;-84
2023/11/16 08:09:36;;;;;;;8.80;2.30;;;;;;;7.22;100.00;101484.78;4993164;28;20034;-84
2023/11/16 08:12:02;;;;;;;11.77;3.00;;;;;;;7.22;100.00;101486.59;4991787;28;20045;-85
2023/11/16 08:14:31;;;;;;;6.32;2.63;;;;;;;7.25;100.00;101486.41;4993383;28;20128;-85
2023/11/16 08:16:58;;;;;;;12.95;3.20;;;;;;;7.29;100.00;101479.13;4993034;28;20141;-85
2023/11/16 08:19:25;;;;;;;11.65;3.08;;;;;;;7.32;100.00;101469.16;4993199;28;20041;-85
2023/11/16 08:21:55;;;;;;;12.30;2.75;;;;;;;7.36;100.00;101464.50;4993175;28;20053;-86
2023/11/16 08:24:22;;;;;;;13.50;3.43;;;;;;;7.38;100.00;101465.25;4993436;28;20030;-86
2023/11/16 08:26:47;;;;;;;11.10;3.53;;;;;;;7.39;100.00;101470.44;4993774;28;20447;-85
2023/11/16 08:29:13;;;;;;;13.85;2.90;;;;;;;7.40;100.00;101472.16;4993588;28;20043;-84
2023/11/16 08:31:38;;;;;;;5.25;2.90;;;;;;;7.43;100.00;101471.09;4994242;28;20043;-84
2023/11/16 08:34:04;;;;;;;7.78;2.60;;;;;;;7.46;100.00;101462.09;4997320;28;20031;-84
2023/11/16 08:36:29;;;;;;;11.90;2.90;;;;;;;7.50;100.00;101468.88;4997398;28;20045;-85
2023/11/16 08:38:55;;;;;;;12.05;2.90;;;;;;;7.53;100.00;101471.31;4996518;28;20033;-84
2023/11/16 08:41:22;;;;;;;13.95;3.50;;;;;;;7.55;100.00;101472.91;4996380;28;20422;-84
2023/11/16 08:43:51;;;;;;;9.40;3.60;;;;;;;7.58;100.00;101478.00;4997421;28;20121;-84
2023/11/16 08:46:30;;;;;;;9.98;3.72;;;;;;;7.61;100.00;101473.44;4997986;28;20038;-85
2023/11/16 08:48:56;;;;;;;15.68;4.82;;;;;;;7.64;100.00;101475.88;4997960;28;20045;-85
2023/11/16 08:51:23;;;;;;;10.35;3.92;;;;;;;7.67;100.00;101480.97;4997175;28;20039;-86
2023/11/16 08:53:50;;;;;;;9.82;4.47;;;;;;;7.68;100.00;101472.91;4996030;28;20119;-84
2023/11/16 08:56:15;;;;;;;15.00;4.70;;;;;;;7.69;100.00;101463.19;4996182;28;20042;-83
2023/11/16 08:58:47;;;;;;;18.10;5.43;;;;;;;7.70;100.00;101460.44;4996043;28;20034;-84
2023/11/16 09:01:16;;;;;;;12.05;4.32;;;;;;;7.72;100.00;101461.16;4997934;28;20031;-86
2023/11/16 09:03:45;;;;;;;16.85;5.80;;;;;;;7.74;100.00;101469.00;4980487;28;20077;-85
2023/11/16 09:06:15;;;;;;;10.35;5.18;;;;;;;7.73;100.00;101462.00;4997157;28;20041;-85
2023/11/16 09:08:48;;;;;;;15.95;4.50;;;;;;;7.74;100.00;101458.41;4997734;28;20054;-84
2023/11/16 09:11:17;;;;;;;15.95;6.35;;;;;;;7.77;100.00;101466.16;4997246;28;20491;-84
2023/11/16 09:13:45;;;;;;;15.45;5.53;;;;;;;7.76;100.00;101467.97;4997954;28;20034;-82
2023/11/16 09:16:11;;;;;;;11.20;5.25;;;;;;;7.77;100.00;101466.97;4996730;28;20033;-83
2023/11/16 09:18:38;;;;;;;18.00;4.95;;;;;;;7.79;100.00;101466.03;4996792;28;20038;-83
2023/11/16 09:21:06;;;;;;;15.00;5.15;;;;;;;7.84;100.00;101471.88;4996608;28;20034;-84
2023/11/16 09:23:31;;;;;;;13.57;5.80;;;;;;;7.85;100.00;101470.91;4996697;28;20034;-83
2023/11/16 09:25:57;;;;;;;14.32;5.35;;;;;;;7.85;100.00;101474.44;4995330;28;20034;-83
2023/11/16 09:28:22;;;;;;;19.40;5.97;;;;;;;7.86;100.00;101470.81;4996134;28;20062;-83
2023/11/16 09:30:48;;;;;;;18.48;5.93;;;;;;;7.87;100.00;101474.31;4995332;28;20037;-83
2023/11/16 09:33:13;;;;;;;14.55;5.47;;;;;;;7.85;100.00;101471.78;4996008;28;20559;-83
2023/11/16 09:35:42;;;;;;;16.35;5.88;;;;;;;7.86;100.00;101468.16;4996349;28;20505;-83
2023/11/16 09:38:11;;;;;;;12.32;5.90;;;;;;;7.88;100.00;101460.09;4996244;28;20034;-83
2023/11/16 09:40:38;;;;;;;19.13;6.80;;;;;;;7.89;100.00;101453.84;4995015;28;20046;-83
2023/11/16 09:43:17;;;;;;;20.60;6.65;;;;;;;7.90;100.00;101451.09;4994325;28;20034;-83
2023/11/16 09:45:50;;;;;;;16.27;6.43;;;;;;;7.91;100.00;101451.94;4996376;28;20041;-83
2023/11/16 09:48:20;;;;;;;12.60;6.90;;;;;;;7.92;100.00;101461.59;4996043;28;20032;-83
2023/11/16 09:50:48;;;;;;;15.80;7.68;;;;;;;7.93;100.00;101464.13;4995301;28;20359;-81
2023/11/16 09:53:20;;;;;;;22.73;7.60;;;;;;;7.96;100.00;101460.44;4994911;28;20049;-83
2023/11/16 09:55:53;;;;;;;16.75;7.05;;;;;;;7.97;100.00;101458.63;4996038;28;20118;-84
2023/11/16 09:58:25;;;;;;;12.15;6.28;;;;;;;7.99;100.00;101460.22;4996091;28;20038;-83
2023/11/16 10:00:55;;;;;;;13.20;6.40;;;;;;;7.99;100.00;101454.91;4995843;28;20229;-83
2023/11/16 10:03:31;;;;;;;12.57;6.63;;;;;;;8.00;100.00;101446.00;4995709;28;20058;-84
2023/11/16 10:06:03;;;;;;;10.65;6.60;;;;;;;8.00;100.00;101443.38;4996177;28;20101;-83
2023/11/16 10:08:29;;;;;;;13.57;6.93;;;;;;;7.94;100.00;101438.47;4995156;28;20465;-82
2023/11/16 10:11:00;;;;;;;17.00;6.63;;;;;;;7.94;100.00;101438.47;4996505;28;20129;-83
2023/11/16 10:13:25;;;;;;;14.48;6.40;;;;;;;7.91;100.00;101444.84;4996720;28;20031;-85
2023/11/16 10:15:52;;;;;;;13.85;6.38;;;;;;;7.93;100.00;101434.16;4996463;28;20366;-88
2023/11/16 10:18:18;;;;;;;13.13;5.85;;;;;;;7.93;100.00;101427.03;4997106;28;20034;-91
2023/11/16 10:20:44;;;;;;;15.82;6.60;;;;;;;7.94;100.00;101425.22;4997500;28;20075;-86
2023/11/16 10:23:12;;;;;;;12.00;6.47;;;;;;;7.95;100.00;101426.94;4996434;28;20142;-85
2023/11/16 10:25:39;;;;;;;15.90;6.45;;;;;;;7.96;100.00;101428.63;4996850;28;20034;-86
2023/11/16 10:28:15;;;;;;;15.30;7.32;;;;;;;7.97;100.00;101422.34;4996667;28;20031;-87
2023/11/16 10:30:46;;;;;;;13.40;6.78;;;;;;;7.96;100.00;101415.38;4996349;28;20494;-85
2023/11/16 10:33:16;;;;;;;19.25;7.90;;;;;;;7.95;100.00;101411.88;4996515;28;20434;-82
2023/11/16 10:35:48;;;;;;;17.90;8.63;;;;;;;7.95;100.00;101406.56;4995137;28;20064;-86
2023/11/16 10:38:23;;;;;;;14.40;8.77;;;;;;;7.95;100.00;101408.38;4995994;28;20030;-84
2023/11/16 10:40:51;;;;;;;18.83;9.35;;;;;;;7.95;100.00;101398.63;4994947;28;20091;-84
2023/11/16 10:43:19;;;;;;;18.15;9.45;;;;;;;7.97;100.00;101395.84;4995397;28;20042;-84
2023/11/16 10:45:47;;;;;;;17.15;9.43;;;;;;;8.01;100.00;101396.50;4995311;28;20033;-84
2023/11/16 10:48:18;;;;;;;20.52;9.98;;;;;;;8.07;100.00;101386.28;4994246;28;20031;-84
2023/11/16 10:50:43;;;;;;;25.27;10.40;;;;;;;8.10;100.00;101379.94;4995881;28;20030;-84
2023/11/16 10:53:17;;;;;;;17.35;10.05;;;;;;;8.11;100.00;101386.94;4995480;28;20391;-86
2023/11/16 10:55:47;;;;;;;17.67;10.15;;;;;;;8.13;100.00;101374.41;4994965;28;20074;-84
2023/11/16 10:58:13;;;;;;;18.15;10.63;;;;;;;8.16;100.00;101374.19;4995799;28;20026;-89
2023/11/16 11:00:41;;;;;;;18.23;9.57;;;;;;;8.15;100.00;101369.00;4995017;28;20042;-84
2023/11/16 11:03:08;;;;;;;18.02;9.88;;;;;;;8.12;100.00;101360.31;4995268;28;20081;-85
2023/11/16 11:05:36;;;;;;;18.40;10.20;;;;;;;8.12;100.00;101347.06;4997325;28;20042;-85
2023/11/16 11:08:10;;;;;;;20.85;10.18;;;;;;;8.14;100.00;101346.13;4996453;28;20081;-85
2023/11/16 11:10:38;;;;;;;23.67;10.85;;;;;;;8.14;100.00;101344.31;4997164;28;20108;-86
2023/11/16 11:13:05;;;;;;;22.33;10.38;;;;;;;8.15;100.00;101331.91;4996804;28;20097;-85
2023/11/16 11:15:36;;;;;;;25.05;11.57;;;;;;;8.11;100.00;101326.81;4994668;28;20101;-85
2023/11/16 11:18:04;;;;;;;20.83;11.18;;;;;;;8.09;100.00;101323.44;4997930;28;20466;-84
2023/11/16 11:20:40;;;;;;;23.15;12.20;;;;;;;8.06;100.00;101315.72;4995312;28;20034;-85